Time;durP1;ratioP1;P1;durP2;ratioP2;P2;SDS_P1;SDS_P2;PMS_P1;PMS_P2;Temp;Humidity;BMP_temperature;BMP_pressure;BME280_temperature;BME280_humidity;BME280_pressure;Samples;Min_cycle;Max_cycle;Signal;HPM_P1;HPM_P2
2022/08/25 00:00:47;;;;;;;7.40;6.70;;;20.50;99.90;;;;;;5032270;28;20172;-58
2022/08/25 00:03:14;;;;;;;7.30;6.60;;;20.40;99.90;;;;;;5050567;28;20210;-58
2022/08/25 00:05:40;;;;;;;7.27;6.57;;;20.20;99.90;;;;;;5051985;28;20599;-59
2022/08/25 00:08:06;;;;;;;8.40;6.73;;;20.40;99.90;;;;;;5048899;28;20246;-58
2022/08/25 00:10:35;;;;;;;7.43;6.70;;;20.40;99.90;;;;;;5050321;28;20175;-54
2022/08/25 00:13:01;;;;;;;7.27;6.27;;;20.40;99.90;;;;;;5048063;28;20210;-58
2022/08/25 00:15:31;;;;;;;7.43;6.73;;;20.50;99.90;;;;;;5051507;28;20187;-54
2022/08/25 00:17:57;;;;;;;7.60;6.90;;;20.40;99.90;;;;;;5050267;28;20167;-59
2022/08/25 00:20:24;;;;;;;7.00;6.30;;;20.30;99.90;;;;;;5051947;28;20163;-58
2022/08/25 00:22:50;;;;;;;7.20;6.50;;;20.50;99.90;;;;;;5050278;28;20199;-59
2022/08/25 00:25:16;;;;;;;7.50;6.67;;;20.30;99.90;;;;;;5042554;28;20653;-59
2022/08/25 00:27:42;;;;;;;7.80;7.10;;;20.00;99.90;;;;;;5038219;28;20203;-59
2022/08/25 00:30:09;;;;;;;7.50;6.80;;;20.20;99.90;;;;;;5040204;28;20589;-59
2022/08/25 00:32:35;;;;;;;8.40;7.17;;;20.00;99.90;;;;;;5031755;28;20194;-59
2022/08/25 00:35:02;;;;;;;8.23;7.07;;;20.30;99.90;;;;;;5049412;28;20904;-60
2022/08/25 00:37:27;;;;;;;7.60;6.80;;;20.30;99.90;;;;;;5049797;28;20282;-58
2022/08/25 00:39:55;;;;;;;7.50;6.67;;;20.10;99.90;;;;;;5036450;28;20270;-59
2022/08/25 00:42:22;;;;;;;8.60;7.07;;;20.10;99.90;;;;;;5042052;28;20171;-59
2022/08/25 00:44:48;;;;;;;7.63;6.93;;;20.00;99.90;;;;;;5042065;28;20578;-57
2022/08/25 00:47:13;;;;;;;8.13;6.73;;;19.80;99.90;;;;;;5048725;28;20246;-59
2022/08/25 00:49:45;;;;;;;7.83;7.03;;;19.80;99.90;;;;;;5041716;28;20254;-59
2022/08/25 00:52:15;;;;;;;7.47;6.73;;;20.00;99.90;;;;;;5036115;28;20178;-59
2022/08/25 00:54:51;;;;;;;7.50;6.80;;;19.80;99.90;;;;;;5032383;28;20251;-57
2022/08/25 00:57:21;;;;;;;7.23;6.53;;;19.90;99.90;;;;;;5043508;28;20198;-59
2022/08/25 00:59:47;;;;;;;7.90;7.00;;;;;;;;;;5020410;28;20179;-58
2022/08/25 01:02:14;;;;;;;8.40;7.40;;;20.00;99.90;;;;;;5033423;28;20666;-59
2022/08/25 01:04:41;;;;;;;7.80;6.63;;;19.60;99.90;;;;;;5037418;28;20650;-57
2022/08/25 01:07:06;;;;;;;7.93;6.77;;;20.00;99.90;;;;;;5049481;28;20202;-59
2022/08/25 01:09:33;;;;;;;7.50;6.80;;;19.90;99.90;;;;;;5038691;28;20345;-58
2022/08/25 01:12:00;;;;;;;8.47;6.83;;;19.90;99.90;;;;;;5051248;28;20175;-58
2022/08/25 01:14:27;;;;;;;8.07;7.27;;;19.80;99.90;;;;;;5041476;28;20199;-59
2022/08/25 01:16:53;;;;;;;8.07;7.30;;;;;;;;;;5032207;28;20207;-59
2022/08/25 01:19:19;;;;;;;7.67;6.93;;;19.70;99.90;;;;;;5032386;28;20258;-59
2022/08/25 01:21:51;;;;;;;8.33;7.53;;;19.90;99.90;;;;;;5031314;28;20172;-58
2022/08/25 01:24:26;;;;;;;8.10;7.30;;;;;;;;;;5031954;28;20186;-58
2022/08/25 01:26:52;;;;;;;8.80;7.87;;;;;;;;;;5030894;28;20707;-56
2022/08/25 01:29:20;;;;;;;8.67;7.77;;;19.60;99.90;;;;;;5041304;28;20261;-57
2022/08/25 01:31:51;;;;;;;8.03;7.23;;;19.80;99.90;;;;;;5050310;28;20182;-60
2022/08/25 01:34:18;;;;;;;8.40;7.60;;;19.80;99.90;;;;;;5050475;28;20199;-58
2022/08/25 01:36:44;;;;;;;7.97;7.20;;;19.80;99.90;;;;;;5049192;28;20210;-57
2022/08/25 01:39:11;;;;;;;8.33;6.97;;;19.80;99.90;;;;;;5051072;28;20637;-60
2022/08/25 01:42:05;;;;;;;7.87;7.17;;;19.80;99.90;;;;;;5041156;28;20184;-59
2022/08/25 01:44:34;;;;;;;7.87;7.07;;;19.80;99.90;;;;;;5031799;28;20195;-59
2022/08/25 01:47:00;;;;;;;7.70;6.97;;;19.70;99.90;;;;;;5046821;28;20343;-60
2022/08/25 01:49:26;;;;;;;9.30;7.23;;;19.70;99.90;;;;;;5048154;28;20262;-58
2022/08/25 01:52:00;;;;;;;7.97;7.17;;;19.70;99.90;;;;;;5032216;28;20180;-59
2022/08/25 01:54:26;;;;;;;8.30;7.50;;;19.70;99.90;;;;;;5047244;28;20317;-60
2022/08/25 01:56:51;;;;;;;7.90;7.13;;;19.60;99.90;;;;;;5048825;28;20282;-60
2022/08/25 01:59:19;;;;;;;8.80;7.90;;;19.60;99.90;;;;;;5046065;28;20172;-59
2022/08/25 02:01:45;;;;;;;8.23;7.43;;;19.60;99.90;;;;;;5049588;28;20183;-58
2022/08/25 02:04:11;;;;;;;8.37;7.57;;;19.60;99.90;;;;;;5048828;28;20613;-57
2022/08/25 02:06:38;;;;;;;8.40;7.60;;;19.60;99.90;;;;;;5050407;28;20194;-58
2022/08/25 02:09:10;;;;;;;8.60;7.80;;;19.50;99.90;;;;;;5049004;28;20194;-59
2022/08/25 02:11:37;;;;;;;8.10;7.30;;;19.50;99.90;;;;;;5050733;28;20177;-58
2022/08/25 02:14:04;;;;;;;8.23;7.43;;;19.50;99.90;;;;;;5048722;28;20199;-59
2022/08/25 02:16:33;;;;;;;8.47;7.67;;;19.50;99.90;;;;;;5032829;28;20203;-58
2022/08/25 02:19:00;;;;;;;8.67;7.67;;;19.50;99.90;;;;;;5031460;28;20195;-59
2022/08/25 02:21:26;;;;;;;8.43;7.67;;;19.50;99.90;;;;;;5033348;28;20176;-59
2022/08/25 02:23:52;;;;;;;8.73;7.90;;;19.40;99.90;;;;;;5036335;28;20638;-60
2022/08/25 02:26:18;;;;;;;8.33;7.53;;;19.40;99.90;;;;;;5033887;28;20218;-59
2022/08/25 02:28:49;;;;;;;8.97;8.07;;;19.40;99.90;;;;;;5036112;28;20184;-59
2022/08/25 02:31:17;;;;;;;8.23;7.50;;;19.30;99.90;;;;;;5050644;28;20190;-59
2022/08/25 02:33:43;;;;;;;9.00;8.10;;;19.30;99.90;;;;;;5043717;28;20730;-58
2022/08/25 02:36:09;;;;;;;8.80;7.90;;;19.30;99.90;;;;;;5036026;28;20287;-59
2022/08/25 02:38:35;;;;;;;8.80;8.00;;;19.40;99.90;;;;;;5035533;28;20535;-59
2022/08/25 02:41:06;;;;;;;9.33;8.43;;;19.40;99.90;;;;;;5034955;28;20194;-59
2022/08/25 02:43:32;;;;;;;8.90;7.73;;;19.40;99.90;;;;;;5042317;28;20193;-60
2022/08/25 02:45:58;;;;;;;9.40;8.50;;;19.40;99.90;;;;;;5051952;28;20199;-59
2022/08/25 02:48:24;;;;;;;8.90;8.03;;;19.40;99.90;;;;;;5052241;28;20190;-60
2022/08/25 02:50:51;;;;;;;8.50;7.40;;;19.40;99.90;;;;;;5051925;28;20183;-59
2022/08/25 02:53:18;;;;;;;9.30;8.40;;;19.50;99.90;;;;;;5034026;28;20199;-58
2022/08/25 02:55:44;;;;;;;9.20;8.40;;;19.50;99.90;;;;;;5033847;28;20208;-59
2022/08/25 02:58:09;;;;;;;9.37;8.30;;;19.50;99.90;;;;;;5034607;28;20187;-60
2022/08/25 03:00:36;;;;;;;11.97;8.73;;;19.40;99.90;;;;;;5045404;28;20186;-56
2022/08/25 03:03:02;;;;;;;9.87;8.27;;;19.50;99.90;;;;;;5034770;28;20547;-60
2022/08/25 03:05:27;;;;;;;9.67;8.77;;;19.40;99.90;;;;;;5039995;28;20203;-60
2022/08/25 03:07:53;;;;;;;9.57;8.67;;;19.40;99.90;;;;;;5049483;28;20214;-59
2022/08/25 03:10:19;;;;;;;9.33;8.30;;;19.40;99.90;;;;;;5052953;28;20183;-59
2022/08/25 03:12:45;;;;;;;9.23;8.23;;;19.40;99.90;;;;;;5053248;28;20214;-59
2022/08/25 03:15:15;;;;;;;9.37;8.50;;;19.40;99.90;;;;;;5051158;28;20179;-60
2022/08/25 03:17:45;;;;;;;10.03;9.13;;;19.40;99.90;;;;;;5051470;28;20243;-58
2022/08/25 03:20:11;;;;;;;9.83;8.90;;;19.40;99.90;;;;;;5047562;28;20232;-59
2022/08/25 03:22:37;;;;;;;10.00;9.03;;;19.50;99.90;;;;;;5043694;28;20186;-58
2022/08/25 03:27:48;;;;;;;9.03;8.23;;;19.40;99.90;;;;;;5034316;28;20190;-59
2022/08/25 03:30:14;;;;;;;9.43;8.53;;;19.40;99.90;;;;;;5033112;28;20268;-59
2022/08/25 03:32:41;;;;;;;9.97;8.83;;;19.40;99.90;;;;;;5044364;28;20201;-59
2022/08/25 03:35:08;;;;;;;9.33;8.40;;;19.40;99.90;;;;;;5032603;28;20173;-57
2022/08/25 03:37:34;;;;;;;8.53;7.73;;;19.40;99.90;;;;;;5034164;28;20217;-60
2022/08/25 03:40:05;;;;;;;8.77;7.97;;;19.30;99.90;;;;;;5032914;28;20186;-59
2022/08/25 03:42:30;;;;;;;9.60;8.70;;;19.30;99.90;;;;;;5034997;28;20200;-60
2022/08/25 03:44:56;;;;;;;9.80;8.80;;;19.30;99.90;;;;;;5050215;28;20217;-58
2022/08/25 03:47:24;;;;;;;10.07;9.07;;;19.20;99.90;;;;;;5046365;28;20195;-60
2022/08/25 03:49:50;;;;;;;10.33;9.27;;;19.20;99.90;;;;;;5044906;28;20171;-59
2022/08/25 03:52:17;;;;;;;10.93;9.83;;;19.20;99.90;;;;;;5032236;28;20171;-57
2022/08/25 03:54:43;;;;;;;11.77;9.57;;;19.20;99.90;;;;;;5032402;28;20273;-60
2022/08/25 03:57:09;;;;;;;11.10;10.00;;;19.20;99.90;;;;;;5031796;28;20682;-59
2022/08/25 03:59:37;;;;;;;10.70;9.70;;;19.30;99.90;;;;;;5040467;28;20175;-59
2022/08/25 04:02:03;;;;;;;11.20;10.00;;;19.20;99.90;;;;;;5050814;28;20212;-60
2022/08/25 04:04:29;;;;;;;10.53;9.33;;;19.20;99.90;;;;;;5052137;28;20494;-59
2022/08/25 04:06:55;;;;;;;10.80;9.20;;;19.20;99.90;;;;;;5050492;28;20198;-60
2022/08/25 04:09:21;;;;;;;10.53;9.40;;;19.10;99.90;;;;;;5052135;28;20176;-59
2022/08/25 04:11:46;;;;;;;10.80;9.80;;;19.10;99.90;;;;;;5050443;28;20175;-60
2022/08/25 04:14:12;;;;;;;9.93;9.00;;;19.00;99.90;;;;;;5047735;28;20242;-59
2022/08/25 04:16:38;;;;;;;9.47;8.67;;;19.00;99.90;;;;;;5032092;28;20192;-59
2022/08/25 04:19:06;;;;;;;9.70;8.70;;;19.00;99.90;;;;;;5035102;28;20267;-59
2022/08/25 04:21:32;;;;;;;9.87;8.97;;;19.00;99.90;;;;;;5051997;28;20246;-59
2022/08/25 04:23:58;;;;;;;10.37;9.37;;;18.90;99.90;;;;;;5049858;28;20261;-58
2022/08/25 04:26:33;;;;;;;10.27;9.27;;;19.00;99.90;;;;;;5051739;28;20217;-58
2022/08/25 04:29:00;;;;;;;9.80;8.90;;;18.90;99.90;;;;;;5040716;28;20204;-59
2022/08/25 04:31:28;;;;;;;10.40;9.30;;;18.90;99.90;;;;;;5031899;28;20228;-59
2022/08/25 04:33:53;;;;;;;10.53;8.43;;;18.90;99.90;;;;;;5039458;28;20193;-58
2022/08/25 04:36:20;;;;;;;10.60;9.43;;;18.90;99.90;;;;;;5049640;28;20194;-59
2022/08/25 04:38:47;;;;;;;10.23;9.03;;;18.90;99.90;;;;;;5048633;28;20235;-58
2022/08/25 04:41:15;;;;;;;10.77;9.77;;;19.00;99.90;;;;;;5032773;28;20170;-59
2022/08/25 04:43:42;;;;;;;10.40;9.40;;;19.00;99.90;;;;;;5041181;28;20555;-58
2022/08/25 04:46:11;;;;;;;10.40;9.40;;;19.00;99.90;;;;;;5050253;28;20201;-59
2022/08/25 04:48:38;;;;;;;9.87;8.97;;;19.00;99.90;;;;;;5033086;28;20207;-58
2022/08/25 04:51:12;;;;;;;10.40;9.40;;;19.10;99.90;;;;;;5035378;28;20171;-58
2022/08/25 04:53:39;;;;;;;10.57;9.20;;;19.10;99.90;;;;;;5040772;28;20195;-59
2022/08/25 04:56:10;;;;;;;9.77;8.77;;;19.10;99.90;;;;;;5046191;28;20285;-59
2022/08/25 04:58:36;;;;;;;10.30;9.07;;;19.10;99.90;;;;;;5032223;28;20170;-59
2022/08/25 05:01:04;;;;;;;9.57;8.67;;;19.20;99.90;;;;;;5046318;28;20541;-58
2022/08/25 05:03:30;;;;;;;9.83;8.90;;;19.20;99.90;;;;;;5044118;28;20243;-59
2022/08/25 05:05:56;;;;;;;10.97;9.97;;;19.30;99.90;;;;;;5051229;28;20610;-59
2022/08/25 05:08:21;;;;;;;10.20;9.20;;;19.30;99.90;;;;;;5044481;28;20180;-58
2022/08/25 05:10:47;;;;;;;10.27;9.37;;;19.30;99.90;;;;;;5049632;28;20174;-58
2022/08/25 05:13:12;;;;;;;10.23;9.23;;;19.40;99.90;;;;;;5032189;28;20219;-59
2022/08/25 05:15:50;;;;;;;9.43;8.53;;;19.40;99.90;;;;;;5032471;28;20188;-59
2022/08/25 05:18:17;;;;;;;10.00;9.10;;;19.40;99.90;;;;;;5047809;28;20246;-59
2022/08/25 05:20:43;;;;;;;10.37;8.97;;;19.50;99.90;;;;;;5049582;28;20171;-59
2022/08/25 05:23:08;;;;;;;9.80;8.90;;;19.60;99.90;;;;;;5050847;28;20235;-59
2022/08/25 05:25:34;;;;;;;10.10;9.20;;;19.60;99.90;;;;;;5048803;28;20214;-59
2022/08/25 05:28:00;;;;;;;9.50;8.60;;;19.70;99.90;;;;;;5037950;28;20187;-59
2022/08/25 05:30:25;;;;;;;9.93;9.03;;;19.70;99.90;;;;;;5031461;28;20523;-59
2022/08/25 05:32:51;;;;;;;9.73;8.83;;;19.80;99.90;;;;;;5031990;28;20203;-58
2022/08/25 05:35:18;;;;;;;10.53;9.53;;;19.90;99.90;;;;;;5034618;28;20643;-58
2022/08/25 05:37:44;;;;;;;9.83;8.87;;;19.90;99.90;;;;;;5047153;28;20178;-59
2022/08/25 05:40:09;;;;;;;10.33;9.27;;;19.90;99.90;;;;;;5050948;28;20172;-59
2022/08/25 05:42:35;;;;;;;10.23;9.20;;;20.00;99.90;;;;;;5049278;28;20167;-58
2022/08/25 05:45:02;;;;;;;11.53;10.13;;;20.10;99.90;;;;;;5032713;28;20647;-58
2022/08/25 05:47:28;;;;;;;10.33;9.33;;;20.10;99.90;;;;;;5044991;28;20657;-60
2022/08/25 05:49:53;;;;;;;10.83;9.73;;;20.20;99.90;;;;;;5050580;28;20186;-56
2022/08/25 05:52:19;;;;;;;11.63;9.50;;;20.30;99.90;;;;;;5046292;28;20222;-60
2022/08/25 05:54:45;;;;;;;10.00;9.10;;;20.40;99.90;;;;;;5030848;28;20191;-59
2022/08/25 05:57:11;;;;;;;9.77;8.87;;;20.50;99.90;;;;;;5035746;28;20685;-59
2022/08/25 05:59:37;;;;;;;10.00;9.07;;;20.60;99.90;;;;;;5040618;28;20171;-58
2022/08/25 06:04:46;;;;;;;10.00;9.10;;;20.80;99.90;;;;;;5034469;28;20176;-59
2022/08/25 06:07:12;;;;;;;9.67;8.83;;;20.90;99.90;;;;;;5038378;28;20196;-59
2022/08/25 06:09:39;;;;;;;9.70;8.53;;;21.00;99.90;;;;;;5036965;28;20183;-59
2022/08/25 06:12:06;;;;;;;10.37;9.33;;;21.10;99.90;;;;;;5036743;28;20181;-56
2022/08/25 06:14:32;;;;;;;9.17;8.37;;;21.20;99.90;;;;;;5041944;28;20214;-58
2022/08/25 06:16:59;;;;;;;10.13;8.77;;;21.20;99.90;;;;;;5052405;28;20613;-58
2022/08/25 06:19:25;;;;;;;9.03;8.13;;;21.30;99.90;;;;;;5039334;28;20173;-59
2022/08/25 06:21:54;;;;;;;10.10;9.10;;;21.40;99.90;;;;;;5039958;28;20569;-59
2022/08/25 06:24:19;;;;;;;9.50;8.63;;;21.60;99.90;;;;;;5037428;28;20251;-59
2022/08/25 06:26:45;;;;;;;9.60;8.30;;;21.60;99.90;;;;;;5048587;28;20207;-57
2022/08/25 06:29:12;;;;;;;9.37;8.47;;;21.70;99.90;;;;;;5043206;28;20191;-58
2022/08/25 06:31:38;;;;;;;9.48;8.57;;;21.80;99.90;;;;;;5052936;28;20221;-58
2022/08/25 06:34:04;;;;;;;8.83;8.00;;;21.90;99.90;;;;;;5052271;28;20297;-58
2022/08/25 06:36:30;;;;;;;9.05;8.15;;;22.00;99.90;;;;;;5052964;28;20191;-58
2022/08/25 06:38:56;;;;;;;11.60;8.55;;;22.10;99.90;;;;;;5053635;28;20194;-59
2022/08/25 06:41:22;;;;;;;9.40;8.50;;;22.20;99.90;;;;;;5053701;28;20194;-58
2022/08/25 06:43:47;;;;;;;8.65;7.75;;;22.20;99.90;;;;;;5053413;28;20180;-58
2022/08/25 06:46:20;;;;;;;9.48;8.45;;;22.30;99.90;;;;;;5052674;28;20216;-59
2022/08/25 06:48:46;;;;;;;9.50;8.52;;;22.40;99.90;;;;;;5053576;28;20168;-59
2022/08/25 06:51:15;;;;;;;9.98;8.30;;;22.50;99.90;;;;;;5053919;28;20196;-58
2022/08/25 06:53:41;;;;;;;10.93;8.20;;;22.60;99.90;;;;;;5053163;28;20189;-59
2022/08/25 06:56:08;;;;;;;9.60;8.23;;;22.70;99.90;;;;;;5053502;28;20189;-59
2022/08/25 06:58:34;;;;;;;9.50;8.50;;;22.80;99.90;;;;;;5053479;28;20169;-59
2022/08/25 07:01:06;;;;;;;10.13;8.50;;;22.90;99.90;;;;;;5053498;28;20309;-58
2022/08/25 07:03:32;;;;;;;12.13;8.63;;;23.00;99.90;;;;;;5052321;28;20183;-57
2022/08/25 07:05:58;;;;;;;14.10;8.73;;;23.10;99.90;;;;;;5052861;28;20702;-59
2022/08/25 07:08:23;;;;;;;11.38;9.05;;;23.20;99.90;;;;;;5053432;28;20183;-57
2022/08/25 07:10:49;;;;;;;10.90;8.30;;;23.20;99.90;;;;;;5053595;28;20183;-58
2022/08/25 07:13:15;;;;;;;10.38;8.88;;;23.40;99.90;;;;;;5053309;28;20751;-59
2022/08/25 07:15:42;;;;;;;10.90;8.55;;;23.40;99.90;;;;;;5053169;28;20195;-58
2022/08/25 07:18:10;;;;;;;13.77;8.80;;;23.50;99.90;;;;;;5053463;28;20174;-57
2022/08/25 07:20:36;;;;;;;11.98;9.20;;;23.50;99.90;;;;;;5035770;28;20168;-57
2022/08/25 07:23:02;;;;;;;12.23;8.68;;;23.70;99.90;;;;;;5053158;28;20612;-58
2022/08/25 07:25:28;;;;;;;13.13;8.27;;;23.70;99.90;;;;;;5035174;28;20191;-57
2022/08/25 07:27:53;;;;;;;9.13;7.95;;;23.80;99.90;;;;;;5053232;28;20250;-58
2022/08/25 07:30:19;;;;;;;10.98;9.30;;;23.90;99.90;;;;;;5053145;28;20171;-58
2022/08/25 07:32:45;;;;;;;10.52;8.35;;;24.00;99.90;;;;;;5052953;28;20191;-59
2022/08/25 07:35:14;;;;;;;10.57;8.10;;;24.00;99.90;;;;;;5052392;28;20175;-56
2022/08/25 07:37:44;;;;;;;12.60;8.35;;;24.20;99.90;;;;;;5051947;28;20171;-59
2022/08/25 07:40:14;;;;;;;14.05;8.80;;;24.20;99.90;;;;;;5052880;28;20166;-56
2022/08/25 07:42:40;;;;;;;13.93;9.43;;;24.40;99.90;;;;;;5052909;28;20262;-60
2022/08/25 07:45:07;;;;;;;12.20;9.10;;;24.60;99.90;;;;;;5052601;28;20175;-59
2022/08/25 07:47:32;;;;;;;12.88;10.07;;;24.60;99.90;;;;;;5052712;28;20168;-59
2022/08/25 07:49:58;;;;;;;14.85;9.35;;;24.70;99.90;;;;;;5052722;28;20301;-60
2022/08/25 07:52:23;;;;;;;12.75;9.10;;;24.80;99.90;;;;;;5052442;28;20194;-60
2022/08/25 07:54:52;;;;;;;13.55;9.15;;;24.80;99.90;;;;;;5047496;28;20179;-60
2022/08/25 07:57:18;;;;;;;15.02;9.63;;;25.00;99.90;;;;;;5043112;28;20577;-59
2022/08/25 07:59:43;;;;;;;17.17;9.68;;;25.00;99.90;;;;;;5041325;28;20187;-58
2022/08/25 08:02:11;;;;;;;14.38;8.57;;;25.20;99.90;;;;;;5042177;28;20199;-60
2022/08/25 08:04:37;;;;;;;21.40;9.75;;;25.30;99.90;;;;;;5042833;28;20255;-57
2022/08/25 08:07:04;;;;;;;15.57;9.13;;;25.40;99.90;;;;;;5040103;28;20660;-60
2022/08/25 08:09:32;;;;;;;14.05;9.07;;;25.40;99.90;;;;;;5041880;28;20255;-59
2022/08/25 08:11:58;;;;;;;16.90;8.77;;;25.50;99.90;;;;;;5040878;28;20258;-60
2022/08/25 08:14:23;;;;;;;18.17;8.25;;;25.70;99.90;;;;;;5031971;28;20291;-60
2022/08/25 08:16:49;;;;;;;14.23;8.68;;;25.70;99.90;;;;;;5032203;28;20610;-59
2022/08/25 08:19:15;;;;;;;16.30;9.23;;;25.70;99.90;;;;;;5031550;28;20222;-59
2022/08/25 08:21:41;;;;;;;16.40;8.85;;;25.70;99.90;;;;;;5032062;28;20175;-60
2022/08/25 08:24:07;;;;;;;14.77;8.75;;;25.80;99.90;;;;;;5031936;28;20172;-60
2022/08/25 08:26:34;;;;;;;15.30;8.77;;;25.80;99.90;;;;;;5042836;28;20270;-58
2022/08/25 08:28:59;;;;;;;14.32;8.60;;;25.50;99.90;;;;;;5052029;28;20179;-60
2022/08/25 08:31:27;;;;;;;13.73;8.50;;;25.50;99.90;;;;;;5052032;28;20171;-60
2022/08/25 08:33:54;;;;;;;13.05;8.02;;;25.60;99.90;;;;;;5051331;28;20183;-57
2022/08/25 08:36:21;;;;;;;18.73;8.63;;;25.70;99.90;;;;;;5051618;28;20656;-60
2022/08/25 08:38:47;;;;;;;12.38;8.40;;;25.90;99.90;;;;;;5051687;28;20685;-59
2022/08/25 08:44:22;;;;;;;14.35;9.23;;;25.90;99.90;;;;;;5051460;28;20644;-60
2022/08/25 08:46:56;;;;;;;15.18;8.70;;;26.00;99.90;;;;;;5050446;28;20210;-60
2022/08/25 08:49:38;;;;;;;16.70;9.02;;;25.80;99.90;;;;;;5035772;28;20191;-59
2022/08/25 08:52:05;;;;;;;17.48;9.45;;;25.60;99.90;;;;;;5014873;28;20188;-60
2022/08/25 08:54:36;;;;;;;14.98;9.00;;;25.30;99.90;;;;;;5031631;28;20253;-55
2022/08/25 08:57:17;;;;;;;12.85;8.85;;;25.30;99.90;;;;;;5031185;28;20196;-59
2022/08/25 08:59:49;;;;;;;17.58;9.43;;;25.30;99.90;;;;;;5031254;28;20226;-58
2022/08/25 09:02:49;;;;;;;14.90;8.68;;;25.60;99.90;;;;;;5031409;28;20148;-60
2022/08/25 09:05:18;;;;;;;14.93;9.20;;;25.50;99.90;;;;;;5030839;28;20321;-58
2022/08/25 09:07:48;;;;;;;18.30;8.48;;;25.40;99.90;;;;;;5031312;28;20647;-59
2022/08/25 09:10:16;;;;;;;13.73;8.77;;;25.30;99.90;;;;;;5030394;28;20191;-60
2022/08/25 09:13:06;;;;;;;13.73;9.38;;;25.30;99.90;;;;;;5048653;28;20788;-58
2022/08/25 09:19:01;;;;;;;20.05;9.80;;;25.30;99.90;;;;;;5005912;28;20241;-61
2022/08/25 09:21:45;;;;;;;15.90;9.02;;;25.40;99.90;;;;;;5034506;28;20183;-62
2022/08/25 09:24:26;;;;;;;20.55;10.20;;;25.40;99.90;;;;;;5050092;28;20599;-60
2022/08/25 09:27:16;;;;;;;16.10;9.30;;;25.40;99.90;;;;;;5050538;28;20628;-57
2022/08/25 09:29:59;;;;;;;14.95;8.63;;;25.40;99.90;;;;;;5048437;28;20250;-56
2022/08/25 09:32:29;;;;;;;18.77;9.23;;;25.70;99.90;;;;;;5045254;28;20190;-60
2022/08/25 09:34:55;;;;;;;18.08;9.35;;;26.00;99.90;;;;;;5037232;28;20291;-60
2022/08/25 09:37:22;;;;;;;15.93;8.80;;;25.90;99.90;;;;;;5035003;28;20211;-60
2022/08/25 09:39:48;;;;;;;17.08;9.75;;;26.00;99.90;;;;;;5046799;28;20197;-60
2022/08/25 09:42:13;;;;;;;15.27;9.35;;;26.10;99.90;;;;;;5042883;28;20184;-60
2022/08/25 09:44:42;;;;;;;16.70;8.65;;;26.10;99.90;;;;;;5034630;28;20172;-59
2022/08/25 09:47:16;;;;;;;22.10;9.60;;;26.00;99.90;;;;;;5034672;28;20724;-60
2022/08/25 09:50:02;;;;;;;13.45;8.18;;;25.90;99.90;;;;;;5033941;28;20175;-58
2022/08/25 09:52:28;;;;;;;13.27;8.00;;;25.90;99.90;;;;;;5034633;28;20218;-60
2022/08/25 09:54:55;;;;;;;15.38;7.70;;;26.20;99.90;;;;;;5034416;28;20184;-61
2022/08/25 09:57:33;;;;;;;12.13;7.85;;;26.50;99.90;;;;;;5050552;28;20696;-61
2022/08/25 10:00:35;;;;;;;15.02;7.45;;;26.70;99.90;;;;;;5036189;28;20174;-61
2022/08/25 10:03:17;;;;;;;10.80;7.35;;;27.10;99.90;;;;;;5034473;28;20183;-61
2022/08/25 10:06:00;;;;;;;13.80;7.10;;;27.20;99.90;;;;;;5034534;28;20907;-61
2022/08/25 10:08:34;;;;;;;13.18;6.70;;;27.30;99.90;;;;;;5033040;28;20183;-62
2022/08/25 10:11:04;;;;;;;9.50;6.72;;;27.10;99.90;;;;;;5034160;28;20247;-62
2022/08/25 10:13:41;;;;;;;12.82;6.75;;;27.20;99.90;;;;;;5034335;28;20196;-61
2022/08/25 10:16:24;;;;;;;14.18;7.40;;;27.20;99.90;;;;;;5034344;28;20194;-62
2022/08/25 10:19:28;;;;;;;12.30;6.85;;;27.40;99.90;;;;;;5035856;28;20176;-62
2022/08/25 10:22:07;;;;;;;15.82;7.05;;;27.90;99.90;;;;;;4954092;29;20195;-61
2022/08/25 10:24:34;;;;;;;17.65;7.57;;;28.10;99.90;;;;;;4953602;29;20178;-62
2022/08/25 10:27:47;;;;;;;17.17;8.02;;;28.20;99.90;;;;;;4953750;29;20289;-62
2022/08/25 10:30:48;;;;;;;13.02;7.35;;;28.20;99.90;;;;;;4896542;29;20750;-63
2022/08/25 10:33:16;;;;;;;13.85;7.82;;;27.90;99.90;;;;;;4840593;29;20227;-63
2022/08/25 10:35:57;;;;;;;13.70;7.28;;;27.90;99.90;;;;;;4840900;29;20217;-63
2022/08/25 10:38:56;;;;;;;12.85;7.13;;;27.70;99.90;;;;;;4840894;29;20758;-62
2022/08/25 10:41:44;;;;;;;13.57;6.88;;;27.70;99.90;;;;;;4840443;29;20195;-61
2022/08/25 10:47:16;;;;;;;16.60;7.32;;;28.70;99.90;;;;;;4840820;29;20304;-61
2022/08/25 10:49:48;;;;;;;16.23;7.63;;;29.10;99.90;;;;;;4840781;29;20229;-61
2022/08/25 10:52:39;;;;;;;17.88;7.90;;;29.30;99.90;;;;;;4840750;29;20274;-61
2022/08/25 10:55:23;;;;;;;19.05;7.88;;;29.50;99.90;;;;;;4839281;29;20207;-61
2022/08/25 10:58:22;;;;;;;16.35;8.02;;;29.40;99.90;;;;;;4857830;29;20190;-60
2022/08/25 11:01:13;;;;;;;19.20;7.97;;;29.50;99.90;;;;;;4871312;29;20194;-61
2022/08/25 11:03:46;;;;;;;18.85;7.55;;;29.80;99.90;;;;;;4864627;29;20297;-61
2022/08/25 11:06:41;;;;;;;18.85;7.32;;;30.00;99.90;;;;;;4887475;29;20224;-61
2022/08/25 11:09:11;;;;;;;15.55;7.13;;;30.50;99.90;;;;;;4901037;29;20251;-60
2022/08/25 11:11:54;;;;;;;21.38;7.47;;;31.10;99.90;;;;;;4913340;29;20212;-58
2022/08/25 11:14:27;;;;;;;18.98;7.57;;;31.10;99.90;;;;;;4909491;29;20222;-60
2022/08/25 11:17:11;;;;;;;18.52;7.72;;;31.30;99.90;;;;;;4917144;29;20200;-61
2022/08/25 11:19:44;;;;;;;14.60;7.40;;;31.40;99.90;;;;;;4914095;29;20194;-61
2022/08/25 11:22:34;;;;;;;21.30;8.05;;;31.50;99.90;;;;;;4912175;29;20188;-61
2022/08/25 11:25:28;;;;;;;18.30;7.63;;;31.40;99.90;;;;;;4911350;29;20721;-63
2022/08/25 11:28:09;;;;;;;18.38;7.05;;;31.20;99.90;;;;;;4913830;29;20766;-60
2022/08/25 11:30:37;;;;;;;18.83;7.65;;;31.30;99.90;;;;;;4915365;29;20168;-59
2022/08/25 11:33:03;;;;;;;16.38;7.10;;;31.20;99.90;;;;;;4920020;29;20242;-62
2022/08/25 11:35:57;;;;;;;18.05;7.50;;;31.30;99.90;;;;;;4917201;29;20614;-61
2022/08/25 11:38:49;;;;;;;21.02;7.97;;;31.20;99.90;;;;;;4892645;29;20216;-57
2022/08/25 11:41:39;;;;;;;15.50;6.93;;;30.90;99.90;;;;;;4957536;28;20588;-60
2022/08/25 11:44:32;;;;;;;17.45;7.05;;;30.70;99.90;;;;;;4971268;28;20202;-59
2022/08/25 11:47:24;;;;;;;17.70;6.78;;;30.90;99.90;;;;;;5031290;28;20216;-55
2022/08/25 11:50:05;;;;;;;15.65;7.03;;;31.30;99.90;;;;;;5039677;28;20701;-58
2022/08/25 11:52:30;;;;;;;17.52;6.78;;;31.20;99.90;;;;;;5041276;28;20191;-58
2022/08/25 11:55:15;;;;;;;13.55;6.13;;;30.60;99.90;;;;;;5035058;28;20188;-55
2022/08/25 11:57:43;;;;;;;13.05;6.15;;;30.60;99.90;;;;;;5040510;28;20180;-58
2022/08/25 12:00:35;;;;;;;24.88;7.40;;;30.90;99.90;;;;;;5041889;28;20172;-57
2022/08/25 12:03:35;;;;;;;16.27;6.60;;;30.70;99.90;;;;;;5047337;28;20267;-57
2022/08/25 12:06:35;;;;;;;14.48;6.32;;;30.60;99.90;;;;;;5043872;28;20283;-59
2022/08/25 12:09:02;;;;;;;20.75;6.72;;;31.20;99.90;;;;;;5040887;28;20226;-57
2022/08/25 12:11:56;;;;;;;17.63;5.60;;;32.40;99.90;;;;;;5047848;28;20164;-58
2022/08/25 12:14:25;;;;;;;18.60;6.38;;;33.30;98.90;;;;;;5039528;28;20196;-51
2022/08/25 12:16:52;;;;;;;19.23;6.15;;;33.40;98.50;;;;;;5038511;28;20210;-51
2022/08/25 12:19:28;;;;;;;20.08;6.10;;;33.20;98.40;;;;;;5037075;28;20738;-59
2022/08/25 12:21:57;;;;;;;14.70;6.50;;;33.10;98.20;;;;;;5042161;28;20180;-59
2022/08/25 12:24:42;;;;;;;15.73;5.65;;;32.40;99.10;;;;;;5051294;28;20615;-55
2022/08/25 12:27:49;;;;;;;14.15;6.10;;;31.90;99.50;;;;;;5051534;28;20217;-54
2022/08/25 12:30:27;;;;;;;16.75;6.70;;;31.70;99.90;;;;;;5050938;28;20194;-58
2022/08/25 12:33:17;;;;;;;16.80;6.35;;;31.40;99.90;;;;;;5051330;28;20585;-60
2022/08/25 12:35:52;;;;;;;16.90;6.63;;;31.10;99.90;;;;;;5051658;28;20198;-58
2022/08/25 12:38:31;;;;;;;14.65;6.85;;;30.70;99.90;;;;;;5051559;28;20168;-56
2022/08/25 12:41:13;;;;;;;23.05;6.72;;;30.60;99.90;;;;;;5033928;28;20234;-57
2022/08/25 12:43:41;;;;;;;18.67;6.95;;;30.30;99.90;;;;;;5031793;28;20172;-55
2022/08/25 12:46:22;;;;;;;14.15;6.82;;;30.20;99.90;;;;;;5031651;28;20234;-57
2022/08/25 12:48:55;;;;;;;15.10;6.28;;;30.50;99.90;;;;;;5031831;28;20172;-57
2022/08/25 12:51:22;;;;;;;19.05;6.60;;;30.90;99.90;;;;;;5031676;28;20229;-55
2022/08/25 12:54:16;;;;;;;13.18;6.05;;;31.10;99.90;;;;;;5031401;28;20187;-58
2022/08/25 12:56:46;;;;;;;12.93;6.20;;;31.10;99.90;;;;;;5031596;28;20697;-57
2022/08/25 12:59:16;;;;;;;12.85;5.70;;;31.10;99.90;;;;;;5031690;28;20180;-54
2022/08/25 13:01:57;;;;;;;16.10;6.10;;;30.90;99.90;;;;;;5031685;28;20243;-55
2022/08/25 13:04:36;;;;;;;13.57;6.70;;;30.90;99.90;;;;;;5031037;28;20199;-59
2022/08/25 13:07:11;;;;;;;12.52;5.88;;;31.00;99.90;;;;;;5031373;28;20678;-56
2022/08/25 13:09:57;;;;;;;11.02;6.05;;;31.10;99.90;;;;;;5031512;28;20186;-59
2022/08/25 13:12:47;;;;;;;12.65;6.20;;;31.20;99.90;;;;;;5031366;28;20359;-56
2022/08/25 13:15:24;;;;;;;11.90;6.07;;;31.10;99.90;;;;;;5031276;28;20183;-57
2022/08/25 13:17:50;;;;;;;15.15;6.40;;;30.90;99.90;;;;;;5031359;28;20156;-57